Latest Weather Observations for Bankstown

IDN60801

Issued at 11:33 am EDT Sunday 18 February 2018 (issued every 30 minutes, with the page automatically refreshed every 10 minutes)

About weather observations | Map of weather stations | Latest weather observations for NSW | Other Formats
Station Details ID: 066137 Name: BANKSTOWN AIRPORT AWS Lat: -33.92 Lon: 150.99 Height: 6.5 m
Data from the previous 72 hours. | See also: Recent months at Bankstown
Date/Time
EDT
Temp
°C
App
Temp
°C
Dew
Point
°C
Rel
Hum
%
Delta-T
°C
Wind Press
QNH
hPa
Press
MSL
hPa
Rain since
9am
mm
Dir  Spd
km/h
Gust
km/h
Spd
kts
Gust
kts
18/11:30am 28.0 28.9 18.4 56 6.1 ENE 11 19 6 10 1012.4 1012.4 0.0
18/11:00am 27.2 28.4 19.0 61 5.3 NNE 11 17 6 9 1012.7 1012.7 0.0
18/10:30am 26.3 27.4 18.9 63 4.7 N 11 19 6 10 1013.0 1013.0 0.0
18/10:00am 25.8 27.0 19.0 66 4.4 N 11 17 6 9 1013.1 1013.1 0.0
18/09:30am 25.0 26.3 19.4 71 3.6 N 11 15 6 8 1013.3 1013.3 0.0
18/09:00am 24.1 25.7 19.2 74 3.1 N 9 13 5 7 1013.2 1013.2 0.0
18/08:30am 23.5 26.4 19.0 76 2.9 NNE 2 11 1 6 1013.1 1013.1 0.0
18/08:00am 22.1 25.2 18.7 81 2.1 CALM 0 9 0 5 1012.9 1012.9 0.0
18/07:30am 20.3 23.2 18.2 88 1.3 CALM 0 0 0 0 1012.8 1012.8 0.0
18/07:00am 19.8 22.7 18.1 90 1.1 CALM 0 0 0 0 1012.4 1012.4 0.0
18/06:30am 19.7 22.4 17.7 88 1.2 CALM 0 0 0 0 1012.2 1012.2 0.0
18/06:00am 19.8 22.4 17.4 86 1.5 CALM 0 0 0 0 1012.0 1012.0 0.0
18/05:30am 19.9 21.2 17.1 84 1.7 NNE 6 6 3 3 1011.9 1011.9 0.0
18/05:00am 19.9 22.0 16.3 80 2.2 CALM 0 0 0 0 1011.7 1011.7 0.0
18/04:30am 21.5 23.2 18.1 81 2.1 NE 6 7 3 4 1011.6 1011.6 0.0
18/04:00am 21.6 24.5 18.2 81 2.1 CALM 0 0 0 0 1011.7 1011.7 0.0
18/03:30am 21.3 24.2 18.3 83 1.9 CALM 0 0 0 0 1012.1 1012.1 0.0
18/03:00am 21.8 24.1 17.6 77 2.6 NE 2 6 1 3 1012.2 1012.2 0.0
18/02:30am 23.0 24.7 18.1 74 3.1 NE 6 7 3 4 1012.1 1012.1 0.0
18/02:00am 23.4 25.1 18.1 72 3.3 NE 6 7 3 4 1012.4 1012.4 0.0
18/01:30am 23.7 24.8 18.1 71 3.5 NE 9 11 5 6 1012.7 1012.7 0.0
18/01:00am 24.2 25.4 18.2 69 3.8 NNE 9 13 5 7 1013.1 1013.1 0.0
18/12:30am 24.4 25.6 18.3 69 3.8 NNE 9 15 5 8 1013.3 1013.3 0.0
18/12:00am 24.4 26.0 18.3 69 3.8 NNE 7 11 4 6 1013.5 1013.5 0.0
 
Date/Time
EDT
Temp
°C
App
Temp
°C
Dew
Point
°C
Rel
Hum
%
Delta-T
°C
Wind Press
QNH
hPa
Press
MSL
hPa
Rain since
9am
mm
Dir  Spd
km/h
Gust
km/h
Spd
kts
Gust
kts
17/11:30pm 24.3 25.1 18.2 68 3.8 NNE 11 15 6 8 1013.5 1013.5 0.0
17/11:00pm 24.2 25.3 17.9 68 3.9 N 9 15 5 8 1013.7 1013.7 0.0
17/10:30pm 24.0 24.5 17.5 67 4.0 NNE 11 15 6 8 1013.5 1013.5 0.0
17/10:00pm 24.1 24.7 17.6 67 4.0 NNE 11 20 6 11 1013.3 1013.3 0.0
17/09:30pm 24.1 24.8 17.1 65 4.3 NNE 9 17 5 9 1013.2 1013.2 0.0
17/09:00pm 24.2 24.2 17.2 65 4.3 NNE 13 20 7 11 1012.8 1012.8 0.0
17/08:30pm 24.4 24.0 17.1 63 4.5 NE 15 22 8 12 1012.5 1012.5 0.0
17/08:00pm 24.5 23.7 17.0 63 4.6 NE 17 28 9 15 1012.1 1012.1 0.0
17/07:30pm 24.7 23.6 17.4 64 4.5 NE 19 28 10 15 1011.9 1011.9 0.0
17/07:00pm 25.3 23.5 17.0 60 5.1 NE 22 35 12 19 1011.3 1011.3 0.0
17/06:30pm 25.8 23.7 17.2 59 5.4 ENE 24 37 13 20 1011.2 1011.2 0.0
17/06:00pm 26.2 23.9 16.7 56 5.9 ENE 24 35 13 19 1011.1 1011.1 0.0
17/05:30pm 27.3 25.0 16.6 52 6.6 ENE 24 39 13 21 1010.8 1010.8 0.0
17/05:00pm 27.1 24.1 16.7 53 6.5 ENE 28 37 15 20 1010.7 1010.7 0.0
17/04:30pm 27.4 24.0 16.7 52 6.7 ENE 30 48 16 26 1010.7 1010.7 0.0
17/04:01pm 27.6 23.9 15.9 49 7.2 ENE 30 48 16 26 1011.1 1011.1 0.0
17/04:00pm 28.3 24.5 16.6 49 7.3 ENE 32 48 17 26 1011.1 1011.1 0.0
17/03:30pm 27.0 23.3 16.0 51 6.8 ENE 30 43 16 23 1011.5 1011.5 0.0
17/03:00pm 27.6 24.6 15.9 49 7.2 ENE 26 37 14 20 1011.8 1011.8 0.0
17/02:30pm 27.9 24.9 15.9 48 7.4 ENE 26 39 14 21 1012.0 1012.0 0.0
17/02:00pm 28.4 25.7 15.7 46 7.8 E 24 37 13 20 1012.3 1012.3 0.0
17/01:30pm 27.8 24.8 14.8 45 7.9 ENE 24 35 13 19 1012.8 1012.8 0.0
17/01:00pm 27.4 23.9 14.4 45 7.8 ENE 26 37 14 20 1013.0 1013.0 0.0
17/12:30pm 27.7 25.2 14.0 43 8.2 E 20 30 11 16 1013.5 1013.5 0.0
17/12:00pm 27.3 24.8 13.6 43 8.1 E 19 28 10 15 1014.1 1014.1 0.0
17/11:30am 26.1 23.9 13.2 44 7.5 ENE 17 24 9 13 1014.6 1014.6 0.0
17/11:00am 26.8 26.1 14.2 46 7.5 NNE 11 20 6 11 1014.9 1014.9 0.0
17/10:30am 25.9 25.4 15.0 51 6.6 ENE 11 24 6 13 1015.2 1015.2 0.0
17/10:00am 25.4 24.5 14.8 52 6.3 NE 13 22 7 12 1015.3 1015.3 0.0
17/09:30am 25.2 25.3 15.5 55 5.9 NNE 9 15 5 8 1015.4 1015.4 0.0
17/09:00am 23.9 24.8 16.7 64 4.4 NNE 7 15 4 8 1015.5 1015.5 0.0
17/08:30am 22.9 24.5 16.9 69 3.7 WNW 4 7 2 4 1015.7 1015.7 0.0
17/08:00am 21.8 23.8 17.0 74 2.9 W 2 7 1 4 1015.5 1015.5 0.0
17/07:30am 20.2 22.4 16.6 80 2.2 CALM 0 0 0 0 1015.4 1015.4 0.0
17/07:00am 19.9 22.0 16.3 80 2.2 CALM 0 0 0 0 1015.0 1015.0 0.0
17/06:30am 20.0 21.9 15.8 77 2.5 CALM 0 0 0 0 1014.7 1014.7 0.0
17/06:00am 20.4 22.6 16.4 78 2.4 CALM 0 0 0 0 1014.4 1014.4 0.0
17/05:30am 20.5 22.5 16.1 76 2.6 CALM 0 4 0 2 1014.3 1014.3 0.0
17/05:00am 20.6 21.5 16.2 76 2.6 SSW 6 7 3 4 1014.0 1014.0 0.0
17/04:30am 21.0 21.9 16.6 76 2.7 SSW 7 7 4 4 1014.0 1014.0 0.0
17/04:00am 21.0 21.4 16.4 75 2.8 S 9 11 5 6 1014.1 1014.1 0.0
17/03:30am 21.7 22.5 16.4 72 3.2 SSE 7 9 4 5 1014.2 1014.2 0.0
17/03:00am 22.0 22.1 16.5 71 3.3 SE 11 15 6 8 1014.6 1014.6 0.0
17/02:30am 22.1 22.0 15.9 68 3.7 SE 11 13 6 7 1014.7 1014.7 0.0
17/02:00am 22.1 22.0 15.9 68 3.7 SE 11 15 6 8 1014.9 1014.9 0.0
17/01:30am 22.1 22.0 15.9 68 3.7 SE 11 17 6 9 1015.2 1015.2 0.0
17/01:00am 21.9 21.5 15.3 66 3.9 SE 11 17 6 9 1015.5 1015.5 0.0
17/12:30am 22.1 21.7 15.2 65 4.1 SSE 11 15 6 8 1015.6 1015.6 0.0
17/12:00am 22.2 21.5 15.3 65 4.1 SE 13 17 7 9 1015.4 1015.4 0.0
 
Date/Time
EDT
Temp
°C
App
Temp
°C
Dew
Point
°C
Rel
Hum
%
Delta-T
°C
Wind Press
QNH
hPa
Press
MSL
hPa
Rain since
9am
mm
Dir  Spd
km/h
Gust
km/h
Spd
kts
Gust
kts
16/11:30pm 22.0 21.7 15.4 66 3.9 SE 11 15 6 8 1015.3 1015.3 0.0
16/11:00pm 22.0 21.3 15.4 66 3.9 SE 13 15 7 8 1015.3 1015.3 0.0
16/10:30pm 22.2 21.2 15.5 66 4.0 SE 15 19 8 10 1015.1 1015.1 0.0
16/10:00pm 22.2 21.4 15.1 64 4.2 SE 13 17 7 9 1014.9 1014.9 0.0
16/09:30pm 22.6 21.5 15.4 64 4.3 SE 15 19 8 10 1014.6 1014.6 0.0
16/09:00pm 22.4 20.2 15.0 63 4.4 SE 20 24 11 13 1014.1 1014.1 0.0
16/08:30pm 22.6 20.4 15.0 62 4.5 SE 20 28 11 15 1013.6 1013.6 0.0
16/08:00pm 22.9 20.0 15.2 62 4.6 SE 24 30 13 16 1013.2 1013.2 0.0
16/07:30pm 23.6 20.1 14.6 57 5.3 ESE 26 35 14 19 1012.6 1012.6 0.0
16/07:00pm 23.8 20.3 15.6 60 4.9 ESE 28 37 15 20 1011.9 1011.9 0.0
16/06:30pm 24.1 20.1 15.3 58 5.3 E 30 41 16 22 1011.2 1011.2 0.0
16/06:00pm 24.4 19.7 14.8 55 5.7 E 33 44 18 24 1010.5 1010.5 0.0
16/05:30pm 25.3 20.2 14.7 51 6.3 ESE 35 41 19 22 1010.2 1010.2 0.0
16/05:00pm 25.1 20.2 15.4 55 5.9 E 35 46 19 25 1010.0 1010.0 0.0
16/04:30pm 26.0 22.3 16.0 54 6.1 E 30 43 16 23 1009.9 1009.9 0.0
16/04:00pm 27.6 23.7 15.6 48 7.3 SE 30 35 16 19 1009.8 1009.8 0.0
16/03:30pm 28.4 24.7 13.9 41 8.7 ESE 26 33 14 18 1009.9 1009.9 0.0
16/03:00pm 27.3 23.8 10.9 36 9.3 E 20 30 11 16 1009.8 1009.8 0.0
16/02:30pm 27.9 25.6 13.1 40 8.7 SE 17 28 9 15 1010.0 1010.0 0.0
16/02:00pm 27.0 23.6 12.6 41 8.4 SE 22 28 12 15 1010.3 1010.3 0.0
16/01:30pm 29.1 25.0 -0.1 15 13.8 SW 11 20 6 11 1010.3 1010.3 0.0
16/01:00pm 29.0 23.6 -1.2 14 14.0 SW 17 24 9 13 1010.3 1010.3 0.0
16/12:30pm 30.1 25.2 -0.3 14 14.4 SSW 15 28 8 15 1010.5 1010.5 0.0
16/12:00pm 29.4 23.6 0.1 15 14.0 SSW 20 28 11 15 1010.9 1010.9 0.0
16/11:30am 29.0 23.2 -0.2 15 13.8 SSW 20 32 11 17 1011.0 1011.0 0.0
16/11:00am 29.0 22.4 -0.2 15 13.8 WSW 24 35 13 19 1011.4 1011.4 0.0
16/10:30am 28.9 23.4 0.6 16 13.5 SW 19 28 10 15 1011.1 1011.1 0.0
16/10:00am 28.5 25.9 7.7 27 11.2 WSW 11 33 6 18 1011.0 1011.0 0.0
16/09:30am 26.3 24.1 10.9 38 8.7 SSW 13 17 7 9 1011.0 1011.0 0.0
16/09:00am 23.2 25.1 16.7 67 4.0 ENE 2 7 1 4 1011.0 1011.0 0.0
16/08:30am 21.4 24.3 18.2 82 2.0 CALM 0 6 0 3 1010.6 1010.6 0.0
16/08:00am 19.2 20.5 17.2 88 1.2 S 6 7 3 4 1010.3 1010.3 0.0
16/07:30am 18.4 20.8 16.9 91 0.9 CALM 0 7 0 4 1009.8 1009.8 0.0
16/07:00am 17.0 17.8 15.9 93 0.6 S 6 9 3 5 1009.7 1009.7 0.0
16/06:30am 17.6 19.8 16.6 94 0.6 CALM 0 0 0 0 1009.3 1009.3 0.0
16/06:00am 17.5 19.7 16.5 94 0.6 CALM 0 0 0 0 1009.1 1009.1 0.0
16/05:30am 17.3 18.8 15.8 91 0.9 N 2 6 1 3 1008.9 1008.9 0.0
16/05:00am 18.4 19.5 17.2 93 0.7 NNW 7 9 4 5 1008.7 1008.7 0.0
16/04:30am 18.2 20.6 17.0 93 0.7 CALM 0 0 0 0 1008.4 1008.4 0.0
16/04:00am 18.7 19.9 17.4 92 0.8 SE 7 11 4 6 1008.4 1008.4 0.0
16/03:30am 18.9 21.5 17.6 92 0.8 CALM 0 0 0 0 1008.4 1008.4 0.0
16/03:00am 18.9 21.5 17.4 91 0.9 CALM 0 0 0 0 1008.5 1008.5 0.0
16/02:30am 19.5 22.2 17.8 90 1.0 CALM 0 0 0 0 1008.7 1008.7 0.0
16/02:00am 19.5 22.0 17.3 87 1.3 CALM 0 0 0 0 1009.1 1009.1 0.0
16/01:30am 20.6 23.5 18.2 86 1.5 CALM 0 0 0 0 1009.5 1009.5 0.0
16/01:00am 20.8 23.9 18.6 87 1.4 CALM 0 0 0 0 1009.6 1009.6 0.0
16/12:30am 21.0 24.0 18.4 85 1.6 CALM 0 0 0 0 1009.9 1009.9 0.0
16/12:00am 21.3 24.4 18.7 85 1.6 CALM 0 0 0 0 1010.2 1010.2 0.0
 
Date/Time
EDT
Temp
°C
App
Temp
°C
Dew
Point
°C
Rel
Hum
%
Delta-T
°C
Wind Press
QNH
hPa
Press
MSL
hPa
Rain since
9am
mm
Dir  Spd
km/h
Gust
km/h
Spd
kts
Gust
kts
15/11:30pm 22.0 25.0 18.4 80 2.3 CALM 0 0 0 0 1010.2 1010.2 0.0
15/11:00pm 23.5 25.6 19.0 76 2.9 NNE 6 7 3 4 1010.4 1010.4 0.0
15/10:30pm 23.7 25.8 19.0 75 3.0 NNE 6 7 3 4 1010.6 1010.6 0.0
15/10:00pm 23.9 25.9 18.8 73 3.2 NE 6 7 3 4 1010.6 1010.6 0.0
15/09:30pm 24.1 25.9 18.7 72 3.4 NE 7 11 4 6 1010.2 1010.2 0.0
15/09:00pm 24.4 25.0 18.6 70 3.7 NE 13 17 7 9 1010.0 1010.0 0.0
15/08:30pm 24.7 25.7 18.6 69 3.9 ENE 11 19 6 10 1009.9 1009.9 0.0
15/08:00pm 25.0 25.5 18.4 66 4.2 NE 13 19 7 10 1009.5 1009.5 0.0
15/07:30pm 25.3 25.3 18.2 64 4.5 NE 15 19 8 10 1009.3 1009.3 0.0
15/07:00pm 25.8 25.4 18.0 62 4.9 NE 17 24 9 13 1008.9 1008.9 0.0
15/06:30pm 25.7 24.5 17.6 61 5.1 NE 20 30 11 16 1008.4 1008.4 0.0
15/06:00pm 26.4 25.4 18.0 60 5.3 ENE 20 37 11 20 1008.3 1008.3 0.0
15/05:30pm 26.9 25.0 17.7 57 5.8 ENE 24 37 13 20 1008.4 1008.4 0.0
15/05:00pm 27.8 25.8 17.3 52 6.6 ENE 24 33 13 18 1008.4 1008.4 0.0
15/04:30pm 28.0 26.2 17.8 54 6.5 ENE 24 37 13 20 1008.8 1008.8 0.0
15/04:00pm 28.4 26.1 17.6 52 6.8 ENE 26 39 14 21 1009.2 1009.2 0.0
15/03:30pm 28.0 25.8 16.9 51 6.9 ENE 24 32 13 17 1009.6 1009.6 0.0
15/03:00pm 28.8 26.6 17.0 49 7.4 ENE 24 33 13 18 1010.0 1010.0 0.0
15/02:30pm 28.2 26.1 16.1 47 7.5 ENE 22 35 12 19 1010.5 1010.5 0.0
15/02:00pm 28.8 26.9 15.7 45 8.1 ENE 20 32 11 17 1011.1 1011.1 0.0
15/01:30pm 30.1 28.4 14.6 39 9.4 ENE 17 26 9 14 1011.5 1011.5 0.0
15/01:00pm 29.1 27.5 12.9 37 9.6 NNE 13 20 7 11 1012.2 1012.2 0.0
15/12:30pm 28.4 27.0 13.5 40 8.8 N 13 22 7 12 1013.0 1013.0 0.0
15/12:00pm 27.6 26.6 13.5 41 8.3 NW 11 19 6 10 1013.7 1013.7 0.0

Other Formats:

Comma delimited format used in spreadsheet applications
http://www.bom.gov.au/fwo/IDN60801/IDN60801.94765.axf

JavaScript Object Notation format (JSON) in row-major order
http://www.bom.gov.au/fwo/IDN60801/IDN60801.94765.json